Sy Clevelander — 2CWE8 — position and weather

sailwx.info

Track history (hours):
 
Tides and Currents Weather Stations Pressure Air Temp Water Temp Dewpoint Dewpoint Depression Visibility Wind Speed Wind Dir Waves Ship Positions

Sy Clevelander

Last reported at 2015-Mar-09 18:29 UTC. Time now 2015-Mar-31 15:35 UTC.
Position N 18°25' W 064°33'.
Warning: this ship's position is 21 days out of date.

Length 25 m.

Type: Sailing vessel. MMSI: 235076308.

Date/timePositionNaut miles runAvg speedWind from/ knotsBaromVisibWave heightAir tempDewpointWater temp
2015-Mar-09 18:29N 18°25' W 064°33'7 7.9
2015-Mar-09 17:33N 18°23' W 064°41'8 7.7
2015-Mar-09 16:29N 18°20' W 064°49'  
2015-Mar-06 22:06N 18°18' W 064°53'3 4.2
2015-Mar-06 21:23N 18°19' W 064°50'5 4.0
2015-Mar-06 20:06N 18°22' W 064°45'0 0.0
2015-Mar-06 19:18N 18°22' W 064°45'0 0.0
2015-Mar-06 18:12N 18°22' W 064°45'0 0.7
2015-Mar-06 17:33N 18°22' W 064°45'11 0.3
2015-Mar-04 22:33N 18°25' W 064°33'7 7.1
2015-Mar-04 21:33N 18°23' W 064°41'2 1.6
2015-Mar-04 20:26N 18°23' W 064°43'0 0.0
2015-Mar-04 19:14N 18°23' W 064°43'0 0.0
2015-Mar-04 18:26N 18°23' W 064°43'0 0.0
2015-Mar-04 17:08N 18°23' W 064°43'0 0.0
2015-Mar-04 16:20N 18°23' W 064°43'0 0.0
2015-Mar-04 15:26N 18°23' W 064°43'0 0.0
2015-Mar-04 14:32N 18°23' W 064°43'0 0.0
2015-Mar-04 13:26N 18°23' W 064°43'0 0.0
2015-Mar-04 12:14N 18°23' W 064°43'0 0.0
2015-Mar-04 11:26N 18°23' W 064°43'0 0.0
2015-Mar-04 09:14N 18°23' W 064°43'0 0.0
2015-Mar-04 08:32N 18°23' W 064°43'0 0.0
2015-Mar-04 06:32N 18°23' W 064°43'0 0.0
2015-Mar-04 05:20N 18°23' W 064°43'0 0.0
2015-Mar-04 04:29N 18°23' W 064°43'0 0.0
2015-Mar-04 03:29N 18°23' W 064°43'0 0.0
2015-Mar-04 02:23N 18°23' W 064°43'0 0.0
2015-Mar-04 01:05N 18°23' W 064°43'0 0.0
2015-Mar-04 00:29N 18°23' W 064°43'0 0.0
2015-Mar-03 23:23N 18°23' W 064°43'0 0.0
2015-Mar-03 21:11N 18°23' W 064°43'0 0.0
2015-Mar-03 20:23N 18°23' W 064°43'0 0.0
2015-Mar-03 19:29N 18°23' W 064°43'0 0.0
2015-Mar-03 18:29N 18°23' W 064°43'0 0.0
2015-Mar-03 17:29N 18°23' W 064°43'0 0.0
2015-Mar-03 16:29N 18°23' W 064°43'0 0.0
2015-Mar-03 15:29N 18°23' W 064°43'0 0.0
2015-Mar-03 14:29N 18°23' W 064°43'0 0.0
2015-Mar-03 13:29N 18°23' W 064°43'0 0.0
2015-Mar-03 12:29N 18°23' W 064°43'0 0.0
2015-Mar-03 11:26N 18°23' W 064°43'0 0.0
2015-Mar-03 10:26N 18°23' W 064°43'0 0.0
2015-Mar-03 09:23N 18°23' W 064°43'0 0.0
2015-Mar-03 08:32N 18°23' W 064°43'0 0.0
2015-Mar-03 05:20N 18°23' W 064°43'0 0.0
2015-Mar-03 03:14N 18°23' W 064°43'0 0.0
2015-Mar-03 02:05N 18°23' W 064°43'0 0.0
2015-Mar-03 01:23N 18°23' W 064°43'0 0.0
2015-Mar-03 00:32N 18°23' W 064°43'0 0.0
2015-Mar-02 23:29N 18°23' W 064°43'0 0.0
2015-Mar-02 22:29N 18°23' W 064°43'0 0.0
2015-Mar-02 21:29N 18°23' W 064°43'0 0.0
2015-Mar-02 20:22N 18°23' W 064°43'2 0.1
2015-Mar-01 21:27N 18°22' W 064°41'5 5.1
2015-Mar-01 20:24N 18°27' W 064°43'0 0.0
2015-Mar-01 19:30N 18°27' W 064°43'0 0.0
2015-Mar-01 18:24N 18°27' W 064°43'0 0.3
2015-Mar-01 17:30N 18°27' W 064°43'7 7.6
2015-Mar-01 16:32N 18°21' W 064°48'1 0.6
2015-Mar-01 15:20N 18°20' W 064°48'0 0.0
2015-Mar-01 14:25N 18°20' W 064°48'3 1.4
2015-Mar-01 12:14N 18°22' W 064°45'0 0.0
2015-Mar-01 11:32N 18°22' W 064°45'0 0.0
2015-Mar-01 10:32N 18°22' W 064°45'0 0.0
2015-Mar-01 09:14N 18°22' W 064°45'0 0.0
2015-Mar-01 08:32N 18°22' W 064°45'0 0.0
2015-Mar-01 07:26N 18°22' W 064°45'0 0.0
2015-Mar-01 06:32N 18°22' W 064°45'0 0.0
2015-Mar-01 05:32N 18°22' W 064°45'0 0.0
2015-Mar-01 04:23N 18°22' W 064°45'0 0.0
2015-Mar-01 03:14N 18°22' W 064°45'0 0.0
2015-Mar-01 02:32N 18°22' W 064°45'0 0.0
2015-Mar-01 01:08N 18°22' W 064°45'0 0.0
2015-Mar-01 00:32N 18°22' W 064°45'2 0.7
2015-Feb-28 21:33N 18°21' W 064°47'  
Track history (hours):
 
Tides and Currents Weather Stations Pressure Air Temp Water Temp Dewpoint Dewpoint Depression Visibility Wind Speed Wind Dir Waves Ship Positions

Sy Clevelander

Last reported at 2015-Mar-09 18:29 UTC. Time now 2015-Mar-31 15:35 UTC.
Position N 18°25' W 064°33'.
Warning: this ship's position is 21 days out of date.

Length 25 m.

Type: Sailing vessel. MMSI: 235076308.

Date/timePositionNaut miles runAvg speedWind from/ knotsBaromVisibWave heightAir tempDewpointWater temp
2015-Mar-09 18:29N 18°25' W 064°33'7 7.9
2015-Mar-09 17:33N 18°23' W 064°41'8 7.7
2015-Mar-09 16:29N 18°20' W 064°49'  
2015-Mar-06 22:06N 18°18' W 064°53'3 4.2
2015-Mar-06 21:23N 18°19' W 064°50'5 4.0
2015-Mar-06 20:06N 18°22' W 064°45'0 0.0
2015-Mar-06 19:18N 18°22' W 064°45'0 0.0
2015-Mar-06 18:12N 18°22' W 064°45'0 0.7
2015-Mar-06 17:33N 18°22' W 064°45'11 0.3
2015-Mar-04 22:33N 18°25' W 064°33'7 7.1
2015-Mar-04 21:33N 18°23' W 064°41'2 1.6
2015-Mar-04 20:26N 18°23' W 064°43'0 0.0
2015-Mar-04 19:14N 18°23' W 064°43'0 0.0
2015-Mar-04 18:26N 18°23' W 064°43'0 0.0
2015-Mar-04 17:08N 18°23' W 064°43'0 0.0
2015-Mar-04 16:20N 18°23' W 064°43'0 0.0
2015-Mar-04 15:26N 18°23' W 064°43'0 0.0
2015-Mar-04 14:32N 18°23' W 064°43'0 0.0
2015-Mar-04 13:26N 18°23' W 064°43'0 0.0
2015-Mar-04 12:14N 18°23' W 064°43'0 0.0
2015-Mar-04 11:26N 18°23' W 064°43'0 0.0
2015-Mar-04 09:14N 18°23' W 064°43'0 0.0
2015-Mar-04 08:32N 18°23' W 064°43'0 0.0
2015-Mar-04 06:32N 18°23' W 064°43'0 0.0
2015-Mar-04 05:20N 18°23' W 064°43'0 0.0
2015-Mar-04 04:29N 18°23' W 064°43'0 0.0
2015-Mar-04 03:29N 18°23' W 064°43'0 0.0
2015-Mar-04 02:23N 18°23' W 064°43'0 0.0
2015-Mar-04 01:05N 18°23' W 064°43'0 0.0
2015-Mar-04 00:29N 18°23' W 064°43'0 0.0
2015-Mar-03 23:23N 18°23' W 064°43'0 0.0
2015-Mar-03 21:11N 18°23' W 064°43'0 0.0
2015-Mar-03 20:23N 18°23' W 064°43'0 0.0
2015-Mar-03 19:29N 18°23' W 064°43'0 0.0
2015-Mar-03 18:29N 18°23' W 064°43'0 0.0
2015-Mar-03 17:29N 18°23' W 064°43'0 0.0
2015-Mar-03 16:29N 18°23' W 064°43'0 0.0
2015-Mar-03 15:29N 18°23' W 064°43'0 0.0
2015-Mar-03 14:29N 18°23' W 064°43'0 0.0
2015-Mar-03 13:29N 18°23' W 064°43'0 0.0
2015-Mar-03 12:29N 18°23' W 064°43'0 0.0
2015-Mar-03 11:26N 18°23' W 064°43'0 0.0
2015-Mar-03 10:26N 18°23' W 064°43'0 0.0
2015-Mar-03 09:23N 18°23' W 064°43'0 0.0
2015-Mar-03 08:32N 18°23' W 064°43'0 0.0
2015-Mar-03 05:20N 18°23' W 064°43'0 0.0
2015-Mar-03 03:14N 18°23' W 064°43'0 0.0
2015-Mar-03 02:05N 18°23' W 064°43'0 0.0
2015-Mar-03 01:23N 18°23' W 064°43'0 0.0
2015-Mar-03 00:32N 18°23' W 064°43'0 0.0
2015-Mar-02 23:29N 18°23' W 064°43'0 0.0
2015-Mar-02 22:29N 18°23' W 064°43'0 0.0
2015-Mar-02 21:29N 18°23' W 064°43'0 0.0
2015-Mar-02 20:22N 18°23' W 064°43'2 0.1
2015-Mar-01 21:27N 18°22' W 064°41'5 5.1
2015-Mar-01 20:24N 18°27' W 064°43'0 0.0
2015-Mar-01 19:30N 18°27' W 064°43'0 0.0
2015-Mar-01 18:24N 18°27' W 064°43'0 0.3
2015-Mar-01 17:30N 18°27' W 064°43'7 7.6
2015-Mar-01 16:32N 18°21' W 064°48'1 0.6
2015-Mar-01 15:20N 18°20' W 064°48'0 0.0
2015-Mar-01 14:25N 18°20' W 064°48'3 1.4
2015-Mar-01 12:14N 18°22' W 064°45'0 0.0
2015-Mar-01 11:32N 18°22' W 064°45'0 0.0
2015-Mar-01 10:32N 18°22' W 064°45'0 0.0
2015-Mar-01 09:14N 18°22' W 064°45'0 0.0
2015-Mar-01 08:32N 18°22' W 064°45'0 0.0
2015-Mar-01 07:26N 18°22' W 064°45'0 0.0
2015-Mar-01 06:32N 18°22' W 064°45'0 0.0
2015-Mar-01 05:32N 18°22' W 064°45'0 0.0
2015-Mar-01 04:23N 18°22' W 064°45'0 0.0
2015-Mar-01 03:14N 18°22' W 064°45'0 0.0
2015-Mar-01 02:32N 18°22' W 064°45'0 0.0
2015-Mar-01 01:08N 18°22' W 064°45'0 0.0
2015-Mar-01 00:32N 18°22' W 064°45'2 0.7
2015-Feb-28 21:33N 18°21' W 064°47'  

Dump ship's entire track history